createdAt,value
2022-12-05T00:00:03.411Z,620.92308
2022-12-05T00:05:05.320Z,599.31915
2022-12-05T00:10:06.898Z,599.31915
2022-12-05T00:15:08.485Z,585.66667
2022-12-05T00:20:10.297Z,613.56522
2022-12-05T00:25:12.019Z,606.36559
2022-12-05T00:30:13.532Z,592.42105
2022-12-05T00:35:15.413Z,585.66667
2022-12-05T00:40:17.018Z,479.65217
2022-12-05T00:45:18.640Z,466.0339
2022-12-05T00:50:20.327Z,484.35088
2022-12-05T00:55:21.807Z,536.30769
2022-12-05T01:00:24.214Z,542.05825
2022-12-05T01:05:26.172Z,514.37037
2022-12-05T01:10:28.078Z,530.66667
2022-12-05T01:15:29.734Z,542.05825
2022-12-05T01:20:31.411Z,585.66667
2022-12-05T01:25:32.951Z,599.31915
2022-12-05T01:30:34.454Z,585.66667
2022-12-05T01:35:36.207Z,592.42105
2022-12-05T01:40:38.016Z,613.56522
2022-12-05T01:45:39.698Z,579.05155
2022-12-05T01:50:41.323Z,519.70093
2022-12-05T01:55:42.987Z,536.30769
2022-12-05T02:00:44.514Z,519.70093
2022-12-05T02:05:46.365Z,504
2022-12-05T02:10:47.879Z,553.90099
2022-12-05T02:15:53.926Z,542.05825
2022-12-05T02:20:58.459Z,547.92157
2022-12-05T02:26:00.247Z,660.27907
2022-12-05T02:31:01.913Z,644
2022-12-05T02:36:03.673Z,636.13483
2022-12-05T02:41:05.397Z,592.42105
2022-12-05T02:46:07.118Z,579.05155
2022-12-05T02:51:08.947Z,560
2022-12-05T02:56:10.447Z,572.57143
2022-12-05T03:01:12.040Z,572.57143
2022-12-05T03:06:13.806Z,599.31915
2022-12-05T03:11:15.272Z,585.66667
2022-12-05T03:16:16.945Z,585.66667
2022-12-05T03:21:18.622Z,652.04598
2022-12-05T03:26:20.348Z,652.04598
2022-12-05T03:31:22.236Z,620.92308
2022-12-05T03:36:23.941Z,599.31915
2022-12-05T03:41:25.548Z,620.92308
2022-12-05T03:46:27.229Z,606.36559
2022-12-05T03:51:28.827Z,599.31915
2022-12-05T03:56:30.323Z,606.36559
2022-12-05T04:01:31.906Z,585.66667
2022-12-05T04:06:33.795Z,599.31915
2022-12-05T04:11:35.277Z,652.04598
2022-12-05T04:16:36.879Z,620.92308
2022-12-05T04:21:38.582Z,613.56522
2022-12-05T04:26:40.035Z,636.13483
2022-12-05T04:31:41.740Z,599.31915
2022-12-05T04:36:43.666Z,530.66667
2022-12-05T04:41:45.370Z,494
2022-12-05T04:46:47.004Z,542.05825
2022-12-05T04:51:48.655Z,644
2022-12-05T04:56:50.173Z,560
2022-12-05T05:01:51.664Z,592.42105
2022-12-05T05:06:53.639Z,677.33333
2022-12-05T05:11:55.151Z,695.21951
2022-12-05T05:16:56.696Z,636.13483
2022-12-05T05:21:58.260Z,592.42105
2022-12-05T05:26:59.732Z,553.90099
2022-12-05T05:32:01.411Z,572.57143
2022-12-05T05:37:03.328Z,475.03448
2022-12-05T05:42:04.817Z,566.22222
2022-12-05T05:47:06.735Z,585.66667
2022-12-05T05:52:08.562Z,489.13274
2022-12-05T05:57:10.253Z,553.90099
2022-12-05T06:02:11.700Z,536.30769
2022-12-05T06:07:13.455Z,547.92157
2022-12-05T06:12:15.077Z,592.42105
2022-12-05T06:17:16.621Z,560
2022-12-05T06:22:18.314Z,536.30769
2022-12-05T06:27:19.996Z,514.37037
2022-12-05T06:32:21.563Z,525.13208
2022-12-05T06:37:23.527Z,525.13208
2022-12-05T06:42:25.309Z,560
2022-12-05T06:47:26.920Z,572.57143
2022-12-05T06:52:28.613Z,553.90099
2022-12-05T06:57:30.068Z,560
2022-12-05T07:02:31.922Z,509.13761
2022-12-05T07:07:33.798Z,504
2022-12-05T07:12:35.411Z,530.66667
2022-12-05T07:17:37.128Z,536.30769
2022-12-05T07:22:38.811Z,572.57143
2022-12-05T07:27:40.370Z,572.57143
2022-12-05T07:32:42.264Z,553.90099
2022-12-05T07:37:44.131Z,572.57143
2022-12-05T07:42:45.713Z,553.90099
2022-12-05T07:47:47.285Z,519.70093
2022-12-05T07:52:48.987Z,599.31915
2022-12-05T07:57:50.579Z,592.42105
2022-12-05T08:02:52.424Z,613.56522
2022-12-05T08:07:54.387Z,542.05825
2022-12-05T08:12:55.928Z,733.74359
2022-12-05T08:17:57.463Z,620.92308
2022-12-05T08:22:58.948Z,636.13483
2022-12-05T08:28:00.455Z,704.49383
2022-12-05T08:33:02.054Z,677.33333
2022-12-05T08:38:03.673Z,695.21951
2022-12-05T08:43:05.163Z,644
2022-12-05T08:48:06.842Z,644
2022-12-05T08:53:08.440Z,628.44444
2022-12-05T08:58:10.075Z,644
2022-12-05T09:03:11.871Z,628.44444
2022-12-05T09:08:13.694Z,644
2022-12-05T09:13:15.931Z,606.36559
2022-12-05T09:18:17.453Z,536.30769
2022-12-05T09:23:19.166Z,572.57143
2022-12-05T09:28:20.671Z,560
2022-12-05T09:33:22.363Z,572.57143
2022-12-05T09:38:24.213Z,536.30769
2022-12-05T09:43:25.796Z,542.05825
2022-12-05T09:48:27.432Z,566.22222
2022-12-05T09:53:28.994Z,547.92157
2022-12-05T09:58:30.712Z,628.44444
2022-12-05T10:03:32.303Z,613.56522
2022-12-05T10:08:34.076Z,547.92157
2022-12-05T10:13:35.784Z,628.44444
2022-12-05T10:18:37.453Z,606.36559
2022-12-05T10:23:57.096Z,560
2022-12-05T10:28:59.505Z,572.57143
2022-12-05T10:34:01.229Z,542.05825
2022-12-05T10:39:06.934Z,504
2022-12-05T10:44:11.525Z,519.70093
2022-12-05T10:49:13.073Z,494
2022-12-05T10:54:14.665Z,498.95495
2022-12-05T10:59:16.461Z,475.03448
2022-12-05T11:04:19.350Z,504
2022-12-05T11:09:21.249Z,560
2022-12-05T11:14:22.876Z,525.13208
2022-12-05T11:19:24.399Z,566.22222
2022-12-05T11:24:26.013Z,566.22222
2022-12-05T11:29:27.610Z,553.90099
2022-12-05T11:34:29.165Z,536.30769
2022-12-05T11:39:30.939Z,542.05825
2022-12-05T11:44:32.722Z,592.42105
2022-12-05T11:49:34.239Z,566.22222
2022-12-05T11:55:04.029Z,547.92157
2022-12-05T12:00:06.389Z,628.44444
2022-12-05T12:05:07.883Z,553.90099
2022-12-05T12:10:10.241Z,572.57143
2022-12-05T12:15:11.769Z,585.66667
2022-12-05T12:20:13.464Z,536.30769
2022-12-05T12:25:15.085Z,421.51938
2022-12-05T12:30:16.590Z,613.56522
2022-12-05T12:35:18.050Z,585.66667
2022-12-05T12:40:20.101Z,606.36559
2022-12-05T12:45:22.856Z,572.57143
2022-12-05T12:50:24.454Z,553.90099
2022-12-05T12:55:26.278Z,547.92157
2022-12-05T13:00:27.827Z,519.70093
2022-12-05T13:05:29.363Z,599.31915
2022-12-05T13:10:31.141Z,560
2022-12-05T13:15:32.895Z,553.90099
2022-12-05T13:20:34.401Z,514.37037
2022-12-05T13:25:36.176Z,572.57143
2022-12-05T13:30:37.641Z,489.13274
2022-12-05T13:35:39.380Z,514.37037
2022-12-05T13:40:41.211Z,566.22222
2022-12-05T13:45:42.841Z,494
2022-12-05T13:50:44.763Z,542.05825
2022-12-05T13:55:46.386Z,579.05155
2022-12-05T14:00:48.058Z,613.56522
2022-12-05T14:05:49.798Z,636.13483
2022-12-05T14:10:51.554Z,606.36559
2022-12-05T14:15:53.131Z,566.22222
2022-12-05T14:20:55.028Z,566.22222
2022-12-05T14:25:59.669Z,613.56522
2022-12-05T14:31:02.899Z,566.22222
2022-12-05T14:36:04.809Z,652.04598
2022-12-05T14:41:06.954Z,620.92308
2022-12-05T14:46:08.824Z,566.22222
2022-12-05T14:51:10.579Z,579.05155
2022-12-05T14:56:12.125Z,636.13483
2022-12-05T15:01:13.729Z,636.13483
2022-12-05T15:06:15.354Z,606.36559
2022-12-05T15:11:17.202Z,509.13761
2022-12-05T15:16:18.988Z,585.66667
2022-12-05T15:21:20.678Z,668.70588
2022-12-05T15:31:46.432Z,636.13483
2022-12-05T15:36:47.923Z,579.05155
2022-12-05T15:41:49.725Z,519.70093
2022-12-05T15:46:51.250Z,599.31915
2022-12-05T15:51:52.724Z,613.56522
2022-12-05T15:56:54.287Z,560
2022-12-05T16:01:55.800Z,514.37037
2022-12-05T16:06:57.462Z,494
2022-12-05T16:11:59.123Z,470.49573
2022-12-05T16:17:00.815Z,498.95495
2022-12-05T16:22:02.239Z,475.03448
2022-12-05T16:27:03.905Z,425.25
2022-12-05T16:32:05.688Z,414.22901
2022-12-05T16:37:07.220Z,407.15789
2022-12-05T16:42:09.519Z,448.91803
2022-12-05T16:47:11.378Z,444.81301
2022-12-05T16:52:12.854Z,444.81301
2022-12-05T16:57:14.408Z,440.77419
2022-12-05T17:02:15.968Z,453.09091
2022-12-05T17:07:17.533Z,448.91803
2022-12-05T17:12:19.888Z,453.09091
2022-12-05T17:17:22.539Z,457.33333
2022-12-05T17:22:24.073Z,461.64706
2022-12-05T17:27:25.751Z,453.09091
2022-12-05T17:32:27.327Z,448.91803
2022-12-05T17:37:28.813Z,457.33333
2022-12-05T17:42:30.520Z,457.33333
2022-12-05T17:47:32.153Z,484.35088
2022-12-05T17:52:33.837Z,444.81301
2022-12-05T17:57:35.496Z,410.66667
2022-12-05T18:02:37.032Z,387.16547
2022-12-05T18:07:38.724Z,360.21622
2022-12-05T18:12:40.412Z,349.26316
2022-12-05T18:17:41.916Z,357.42282
2022-12-05T18:22:43.525Z,377.80282
2022-12-05T18:27:45.001Z,390.37681
2022-12-05T18:32:47.732Z,414.22901
2022-12-05T18:37:49.221Z,436.8
2022-12-05T18:42:51.116Z,440.77419
2022-12-05T18:47:54.660Z,436.8
2022-12-05T18:52:58.720Z,444.81301
2022-12-05T18:58:00.328Z,440.77419
2022-12-05T19:03:06.552Z,429.03937
2022-12-05T19:08:11.044Z,403.70149
2022-12-05T19:13:12.710Z,390.37681
2022-12-05T19:18:14.207Z,380.87943
2022-12-05T19:23:15.766Z,377.80282
2022-12-05T19:28:17.267Z,393.63504
2022-12-05T19:33:18.748Z,393.63504
2022-12-05T19:38:20.272Z,396.94118
2022-12-05T19:43:22.047Z,400.2963
2022-12-05T19:48:23.851Z,407.15789
2022-12-05T19:53:25.352Z,414.22901
2022-12-05T19:58:26.791Z,407.15789
2022-12-05T20:03:28.420Z,421.51938
2022-12-05T20:08:29.969Z,421.51938
2022-12-05T20:13:46.842Z,436.8
2022-12-05T20:18:49.153Z,432.88889
2022-12-05T20:23:50.727Z,417.84615
2022-12-05T20:28:52.271Z,417.84615
2022-12-05T20:33:54.066Z,429.03937
2022-12-05T20:38:55.648Z,436.8
2022-12-05T20:43:57.644Z,421.51938
2022-12-05T20:48:59.240Z,432.88889
2022-12-05T20:54:00.727Z,453.09091
2022-12-05T20:59:02.365Z,457.33333
2022-12-05T21:04:04.088Z,457.33333
2022-12-05T21:09:05.666Z,466.0339
2022-12-05T21:14:07.550Z,504
2022-12-05T21:19:09.106Z,479.65217
2022-12-05T21:24:10.696Z,489.13274
2022-12-05T21:29:12.293Z,494
2022-12-05T21:34:13.939Z,504
2022-12-05T21:39:15.423Z,494
2022-12-05T21:44:17.167Z,498.95495
2022-12-05T21:49:18.853Z,494
2022-12-05T21:54:20.588Z,498.95495
2022-12-05T21:59:22.197Z,494
2022-12-05T22:04:23.790Z,479.65217
2022-12-05T22:09:25.362Z,470.49573
2022-12-05T22:14:27.771Z,475.03448
2022-12-05T22:19:29.228Z,498.95495
2022-12-05T22:24:30.726Z,494
2022-12-05T22:29:33.297Z,489.13274
2022-12-05T22:34:34.728Z,498.95495
2022-12-05T22:39:36.225Z,494
2022-12-05T22:44:38.053Z,484.35088
2022-12-05T22:49:39.702Z,484.35088
2022-12-05T22:54:41.426Z,484.35088
2022-12-05T22:59:42.998Z,479.65217
2022-12-05T23:04:44.564Z,489.13274
2022-12-05T23:09:46.052Z,466.0339
2022-12-05T23:14:47.966Z,470.49573
2022-12-05T23:19:49.440Z,466.0339
2022-12-05T23:24:50.927Z,479.65217
2022-12-05T23:29:52.532Z,494
2022-12-05T23:34:54.368Z,504
2022-12-05T23:39:55.892Z,547.92157
2022-12-05T23:44:57.963Z,509.13761
2022-12-05T23:49:59.832Z,504
2022-12-05T23:55:01.401Z,498.95495
